sensor_id;sensor_type;location;lat;lon;timestamp;pressure;altitude;pressure_sealevel;temperature;humidity
65557;BME280;52200;53.490;14.376;2023-05-03T00:01:36;102459.66;;;2.79;81.87
65557;BME280;52200;53.490;14.376;2023-05-03T00:04:02;102459.25;;;2.67;81.79
65557;BME280;52200;53.490;14.376;2023-05-03T00:06:28;102453.09;;;2.83;81.89
65557;BME280;52200;53.490;14.376;2023-05-03T00:08:53;102453.06;;;2.81;81.38
65557;BME280;52200;53.490;14.376;2023-05-03T00:11:19;102453.84;;;2.80;81.40
65557;BME280;52200;53.490;14.376;2023-05-03T00:13:45;102459.19;;;2.65;82.17
65557;BME280;52200;53.490;14.376;2023-05-03T00:16:10;102457.25;;;2.56;82.49
65557;BME280;52200;53.490;14.376;2023-05-03T00:18:36;102458.53;;;2.71;82.48
65557;BME280;52200;53.490;14.376;2023-05-03T00:21:01;102457.06;;;2.76;81.80
65557;BME280;52200;53.490;14.376;2023-05-03T00:23:27;102455.41;;;2.77;82.09
65557;BME280;52200;53.490;14.376;2023-05-03T00:25:56;102457.88;;;2.75;81.96
65557;BME280;52200;53.490;14.376;2023-05-03T00:28:23;102449.75;;;2.82;82.31
65557;BME280;52200;53.490;14.376;2023-05-03T00:30:49;102455.72;;;2.62;82.40
65557;BME280;52200;53.490;14.376;2023-05-03T00:33:15;102448.25;;;2.63;82.71
65557;BME280;52200;53.490;14.376;2023-05-03T00:35:41;102450.00;;;2.66;82.78
65557;BME280;52200;53.490;14.376;2023-05-03T00:38:07;102447.75;;;2.48;83.34
65557;BME280;52200;53.490;14.376;2023-05-03T00:40:32;102446.06;;;2.48;83.18
65557;BME280;52200;53.490;14.376;2023-05-03T00:42:58;102457.47;;;2.40;83.08
65557;BME280;52200;53.490;14.376;2023-05-03T00:45:23;102450.28;;;2.49;83.43
65557;BME280;52200;53.490;14.376;2023-05-03T00:47:49;102454.59;;;2.53;83.09
65557;BME280;52200;53.490;14.376;2023-05-03T00:50:15;102458.88;;;2.56;82.67
65557;BME280;52200;53.490;14.376;2023-05-03T00:52:40;102452.09;;;2.53;83.55
65557;BME280;52200;53.490;14.376;2023-05-03T00:55:07;102452.84;;;2.51;83.36
65557;BME280;52200;53.490;14.376;2023-05-03T00:57:33;102459.38;;;2.46;82.65
65557;BME280;52200;53.490;14.376;2023-05-03T00:59:58;102459.16;;;2.39;83.53
65557;BME280;52200;53.490;14.376;2023-05-03T01:02:25;102455.94;;;2.19;83.50
65557;BME280;52200;53.490;14.376;2023-05-03T01:04:51;102464.91;;;2.37;83.31
65557;BME280;52200;53.490;14.376;2023-05-03T01:10:43;102465.25;;;2.23;82.93
65557;BME280;52200;53.490;14.376;2023-05-03T01:15:57;102462.88;;;2.27;83.54
65557;BME280;52200;53.490;14.376;2023-05-03T01:18:29;102459.94;;;2.14;83.85
65557;BME280;52200;53.490;14.376;2023-05-03T01:20:58;102462.22;;;2.08;84.23
65557;BME280;52200;53.490;14.376;2023-05-03T01:23:42;102460.38;;;2.04;84.17
65557;BME280;52200;53.490;14.376;2023-05-03T01:26:15;102458.88;;;2.09;84.29
65557;BME280;52200;53.490;14.376;2023-05-03T01:28:41;102462.22;;;2.08;84.06
65557;BME280;52200;53.490;14.376;2023-05-03T01:31:06;102465.56;;;2.08;84.14
65557;BME280;52200;53.490;14.376;2023-05-03T01:33:52;102471.63;;;2.15;84.41
65557;BME280;52200;53.490;14.376;2023-05-03T01:36:22;102476.72;;;1.94;84.59
65557;BME280;52200;53.490;14.376;2023-05-03T01:38:51;102474.53;;;2.02;84.58
65557;BME280;52200;53.490;14.376;2023-05-03T01:41:17;102475.31;;;2.01;84.52
65557;BME280;52200;53.490;14.376;2023-05-03T01:43:45;102469.19;;;1.94;84.29
65557;BME280;52200;53.490;14.376;2023-05-03T01:46:11;102476.34;;;1.83;84.82
65557;BME280;52200;53.490;14.376;2023-05-03T01:48:38;102482.94;;;1.81;84.94
65557;BME280;52200;53.490;14.376;2023-05-03T01:51:03;102482.66;;;1.73;84.49
65557;BME280;52200;53.490;14.376;2023-05-03T01:53:29;102482.00;;;1.79;84.68
65557;BME280;52200;53.490;14.376;2023-05-03T01:55:54;102478.72;;;1.80;85.23
65557;BME280;52200;53.490;14.376;2023-05-03T01:58:19;102476.94;;;1.77;85.25
65557;BME280;52200;53.490;14.376;2023-05-03T02:00:45;102486.81;;;1.96;85.19
65557;BME280;52200;53.490;14.376;2023-05-03T02:03:11;102484.66;;;1.82;85.26
65557;BME280;52200;53.490;14.376;2023-05-03T02:05:36;102479.50;;;1.79;85.25
65557;BME280;52200;53.490;14.376;2023-05-03T02:08:01;102484.03;;;1.67;85.52
65557;BME280;52200;53.490;14.376;2023-05-03T02:10:27;102484.41;;;1.76;85.46
65557;BME280;52200;53.490;14.376;2023-05-03T02:12:53;102492.03;;;1.79;85.57
65557;BME280;52200;53.490;14.376;2023-05-03T02:15:18;102484.41;;;1.76;85.04
65557;BME280;52200;53.490;14.376;2023-05-03T02:17:47;102492.72;;;1.75;85.06
65557;BME280;52200;53.490;14.376;2023-05-03T02:20:13;102486.59;;;1.68;85.57
65557;BME280;52200;53.490;14.376;2023-05-03T02:22:38;102493.41;;;1.71;84.84
65557;BME280;52200;53.490;14.376;2023-05-03T02:25:04;102485.03;;;1.49;85.86
65557;BME280;52200;53.490;14.376;2023-05-03T02:27:30;102485.81;;;1.48;86.46
65557;BME280;52200;53.490;14.376;2023-05-03T02:29:56;102483.22;;;1.45;86.67
65557;BME280;52200;53.490;14.376;2023-05-03T02:32:21;102490.66;;;1.43;86.76
65557;BME280;52200;53.490;14.376;2023-05-03T02:34:48;102491.53;;;1.44;87.27
65557;BME280;52200;53.490;14.376;2023-05-03T02:37:14;102489.69;;;1.40;86.88
65557;BME280;52200;53.490;14.376;2023-05-03T02:39:40;102487.97;;;1.39;86.52
65557;BME280;52200;53.490;14.376;2023-05-03T02:42:05;102495.09;;;1.29;86.41
65557;BME280;52200;53.490;14.376;2023-05-03T02:44:31;102490.00;;;1.48;86.11
65557;BME280;52200;53.490;14.376;2023-05-03T02:46:57;102495.78;;;1.25;87.07
65557;BME280;52200;53.490;14.376;2023-05-03T02:49:22;102491.38;;;1.41;87.08
65557;BME280;52200;53.490;14.376;2023-05-03T02:51:48;102491.56;;;1.24;87.03
65557;BME280;52200;53.490;14.376;2023-05-03T02:54:13;102492.78;;;1.34;87.07
65557;BME280;52200;53.490;14.376;2023-05-03T02:56:39;102487.66;;;1.31;87.19
65557;BME280;52200;53.490;14.376;2023-05-03T02:59:04;102493.38;;;1.28;86.37
65557;BME280;52200;53.490;14.376;2023-05-03T03:01:32;102496.03;;;1.32;86.83
65557;BME280;52200;53.490;14.376;2023-05-03T03:03:58;102496.97;;;1.34;86.45
65557;BME280;52200;53.490;14.376;2023-05-03T03:06:23;102498.94;;;1.21;86.53
65557;BME280;52200;53.490;14.376;2023-05-03T03:08:49;102499.91;;;1.25;86.89
65557;BME280;52200;53.490;14.376;2023-05-03T03:11:14;102503.59;;;1.12;87.06
65557;BME280;52200;53.490;14.376;2023-05-03T03:13:40;102508.28;;;1.04;86.97
65557;BME280;52200;53.490;14.376;2023-05-03T03:16:06;102509.69;;;1.19;87.49
65557;BME280;52200;53.490;14.376;2023-05-03T03:18:32;102510.63;;;1.01;87.88
65557;BME280;52200;53.490;14.376;2023-05-03T03:20:59;102512.28;;;1.20;87.49
65557;BME280;52200;53.490;14.376;2023-05-03T03:23:25;102517.28;;;1.20;87.05
65557;BME280;52200;53.490;14.376;2023-05-03T03:25:50;102510.41;;;1.16;87.12
65557;BME280;52200;53.490;14.376;2023-05-03T03:28:16;102526.66;;;1.26;87.48
65557;BME280;52200;53.490;14.376;2023-05-03T03:30:41;102520.53;;;0.98;87.66
65557;BME280;52200;53.490;14.376;2023-05-03T03:33:07;102519.22;;;1.27;87.16
65557;BME280;52200;53.490;14.376;2023-05-03T03:35:32;102523.81;;;1.38;87.14
65557;BME280;52200;53.490;14.376;2023-05-03T03:37:58;102520.16;;;1.29;87.05
65557;BME280;52200;53.490;14.376;2023-05-03T03:40:23;102529.19;;;1.47;86.49
65557;BME280;52200;53.490;14.376;2023-05-03T03:42:49;102526.34;;;1.38;86.49
65557;BME280;52200;53.490;14.376;2023-05-03T03:45:14;102528.59;;;1.32;86.47
65557;BME280;52200;53.490;14.376;2023-05-03T03:47:39;102527.84;;;1.34;86.84
65557;BME280;52200;53.490;14.376;2023-05-03T03:50:05;102528.03;;;1.39;86.72
65557;BME280;52200;53.490;14.376;2023-05-03T03:52:31;102528.06;;;1.60;86.48
65557;BME280;52200;53.490;14.376;2023-05-03T03:54:56;102533.66;;;1.54;87.12
65557;BME280;52200;53.490;14.376;2023-05-03T03:57:22;102538.56;;;1.72;85.88
65557;BME280;52200;53.490;14.376;2023-05-03T03:59:49;102534.75;;;1.82;85.85
65557;BME280;52200;53.490;14.376;2023-05-03T04:02:15;102541.91;;;1.73;86.33
65557;BME280;52200;53.490;14.376;2023-05-03T04:04:40;102539.63;;;1.79;86.22
65557;BME280;52200;53.490;14.376;2023-05-03T04:07:07;102540.91;;;1.90;85.94
65557;BME280;52200;53.490;14.376;2023-05-03T04:09:33;102549.88;;;2.06;85.32
65557;BME280;52200;53.490;14.376;2023-05-03T04:11:59;102543.56;;;2.16;86.29
65557;BME280;52200;53.490;14.376;2023-05-03T04:14:26;102547.81;;;2.19;86.23
65557;BME280;52200;53.490;14.376;2023-05-03T04:16:51;102555.06;;;2.34;86.11
65557;BME280;52200;53.490;14.376;2023-05-03T04:19:16;102546.31;;;2.45;85.97
65557;BME280;52200;53.490;14.376;2023-05-03T04:21:42;102553.09;;;2.48;85.69
65557;BME280;52200;53.490;14.376;2023-05-03T04:24:08;102562.59;;;2.56;86.41
65557;BME280;52200;53.490;14.376;2023-05-03T04:26:39;102561.38;;;2.69;85.89
65557;BME280;52200;53.490;14.376;2023-05-03T04:29:05;102563.34;;;2.78;86.00
65557;BME280;52200;53.490;14.376;2023-05-03T04:31:31;102570.25;;;2.84;86.71
65557;BME280;52200;53.490;14.376;2023-05-03T04:33:56;102570.19;;;3.06;86.29
65557;BME280;52200;53.490;14.376;2023-05-03T04:36:23;102567.47;;;3.25;85.95
65557;BME280;52200;53.490;14.376;2023-05-03T04:38:54;102571.56;;;3.47;86.37
65557;BME280;52200;53.490;14.376;2023-05-03T04:41:20;102577.19;;;3.93;87.25
65557;BME280;52200;53.490;14.376;2023-05-03T04:43:45;102570.13;;;4.67;86.15
65557;BME280;52200;53.490;14.376;2023-05-03T04:46:11;102575.72;;;5.20;84.00
65557;BME280;52200;53.490;14.376;2023-05-03T04:48:36;102570.09;;;5.65;81.24
65557;BME280;52200;53.490;14.376;2023-05-03T04:51:02;102581.41;;;5.81;81.43
65557;BME280;52200;53.490;14.376;2023-05-03T04:53:27;102579.78;;;5.83;80.28
65557;BME280;52200;53.490;14.376;2023-05-03T04:55:53;102583.00;;;5.77;79.82
65557;BME280;52200;53.490;14.376;2023-05-03T04:58:18;102585.63;;;5.80;80.58
65557;BME280;52200;53.490;14.376;2023-05-03T05:00:44;102583.75;;;5.73;79.92
65557;BME280;52200;53.490;14.376;2023-05-03T05:03:10;102581.25;;;5.73;80.89
65557;BME280;52200;53.490;14.376;2023-05-03T05:05:35;102591.47;;;5.79;80.75
65557;BME280;52200;53.490;14.376;2023-05-03T05:08:01;102584.56;;;5.37;82.55
65557;BME280;52200;53.490;14.376;2023-05-03T05:10:26;102595.06;;;5.21;83.00
65557;BME280;52200;53.490;14.376;2023-05-03T05:12:52;102590.06;;;5.56;82.50
65557;BME280;52200;53.490;14.376;2023-05-03T05:15:17;102597.03;;;5.66;82.62
65557;BME280;52200;53.490;14.376;2023-05-03T05:17:43;102596.91;;;5.96;81.88
65557;BME280;52200;53.490;14.376;2023-05-03T05:20:09;102598.25;;;6.19;81.27
65557;BME280;52200;53.490;14.376;2023-05-03T05:22:40;102589.09;;;6.22;81.42
65557;BME280;52200;53.490;14.376;2023-05-03T05:25:06;102602.03;;;6.36;80.77
65557;BME280;52200;53.490;14.376;2023-05-03T05:27:38;102597.63;;;6.27;81.31
65557;BME280;52200;53.490;14.376;2023-05-03T05:30:04;102608.97;;;6.89;79.94
65557;BME280;52200;53.490;14.376;2023-05-03T05:32:30;102611.59;;;7.41;78.67
65557;BME280;52200;53.490;14.376;2023-05-03T05:34:56;102606.25;;;7.77;77.34
65557;BME280;52200;53.490;14.376;2023-05-03T05:37:22;102606.44;;;7.87;76.40
65557;BME280;52200;53.490;14.376;2023-05-03T05:39:48;102610.56;;;7.30;76.30
65557;BME280;52200;53.490;14.376;2023-05-03T05:42:13;102606.81;;;6.65;78.38
65557;BME280;52200;53.490;14.376;2023-05-03T05:44:39;102610.47;;;6.38;79.88
65557;BME280;52200;53.490;14.376;2023-05-03T05:47:04;102623.78;;;6.71;80.49
65557;BME280;52200;53.490;14.376;2023-05-03T05:49:30;102619.81;;;6.84;80.14
65557;BME280;52200;53.490;14.376;2023-05-03T05:51:56;102626.78;;;7.95;78.72
65557;BME280;52200;53.490;14.376;2023-05-03T05:54:22;102627.59;;;8.51;75.34
65557;BME280;52200;53.490;14.376;2023-05-03T05:56:47;102624.75;;;8.29;75.06
65557;BME280;52200;53.490;14.376;2023-05-03T05:59:13;102628.97;;;8.30;74.88
65557;BME280;52200;53.490;14.376;2023-05-03T06:01:38;102627.16;;;8.21;74.96
65557;BME280;52200;53.490;14.376;2023-05-03T06:04:08;102624.41;;;8.04;76.34
65557;BME280;52200;53.490;14.376;2023-05-03T06:06:34;102632.13;;;8.14;75.82
65557;BME280;52200;53.490;14.376;2023-05-03T06:09:00;102628.88;;;8.24;75.47
65557;BME280;52200;53.490;14.376;2023-05-03T06:11:26;102639.06;;;8.93;74.56
65557;BME280;52200;53.490;14.376;2023-05-03T06:13:51;102641.63;;;9.84;72.38
65557;BME280;52200;53.490;14.376;2023-05-03T06:16:17;102632.56;;;9.17;72.84
65557;BME280;52200;53.490;14.376;2023-05-03T06:18:42;102635.78;;;9.00;73.13
65557;BME280;52200;53.490;14.376;2023-05-03T06:21:08;102643.31;;;8.30;74.31
65557;BME280;52200;53.490;14.376;2023-05-03T06:23:34;102646.41;;;8.10;75.73
65557;BME280;52200;53.490;14.376;2023-05-03T06:26:02;102650.84;;;8.25;76.97
65557;BME280;52200;53.490;14.376;2023-05-03T06:28:27;102653.59;;;8.41;77.89
65557;BME280;52200;53.490;14.376;2023-05-03T06:30:53;102655.09;;;8.28;76.29
65557;BME280;52200;53.490;14.376;2023-05-03T06:33:18;102650.91;;;8.28;76.78
65557;BME280;52200;53.490;14.376;2023-05-03T06:35:44;102653.69;;;8.45;75.30
65557;BME280;52200;53.490;14.376;2023-05-03T06:38:11;102654.56;;;8.49;76.24
65557;BME280;52200;53.490;14.376;2023-05-03T06:40:36;102654.72;;;8.61;77.01
65557;BME280;52200;53.490;14.376;2023-05-03T06:43:02;102647.19;;;8.64;76.53
65557;BME280;52200;53.490;14.376;2023-05-03T06:45:27;102653.00;;;8.59;75.38
65557;BME280;52200;53.490;14.376;2023-05-03T06:47:53;102651.00;;;8.37;76.34
65557;BME280;52200;53.490;14.376;2023-05-03T06:50:18;102651.44;;;8.65;76.48
65557;BME280;52200;53.490;14.376;2023-05-03T06:52:45;102649.19;;;8.90;76.42
65557;BME280;52200;53.490;14.376;2023-05-03T06:55:10;102649.75;;;9.44;75.34
65557;BME280;52200;53.490;14.376;2023-05-03T06:57:36;102644.06;;;9.72;73.60
65557;BME280;52200;53.490;14.376;2023-05-03T07:00:02;102642.50;;;9.92;73.24
65557;BME280;52200;53.490;14.376;2023-05-03T07:02:32;102643.28;;;9.83;72.94
65557;BME280;52200;53.490;14.376;2023-05-03T07:04:57;102645.00;;;9.86;72.28
65557;BME280;52200;53.490;14.376;2023-05-03T07:07:22;102642.63;;;10.11;72.22
65557;BME280;52200;53.490;14.376;2023-05-03T07:09:48;102648.81;;;10.50;70.91
65557;BME280;52200;53.490;14.376;2023-05-03T07:12:14;102657.91;;;10.14;71.64
65557;BME280;52200;53.490;14.376;2023-05-03T07:14:40;102655.47;;;10.31;71.80
65557;BME280;52200;53.490;14.376;2023-05-03T07:17:07;102656.50;;;10.59;70.72
65557;BME280;52200;53.490;14.376;2023-05-03T07:19:32;102659.97;;;10.82;69.46
65557;BME280;52200;53.490;14.376;2023-05-03T07:21:58;102654.94;;;10.95;68.75
65557;BME280;52200;53.490;14.376;2023-05-03T07:24:23;102655.72;;;10.85;68.21
65557;BME280;52200;53.490;14.376;2023-05-03T07:26:52;102646.47;;;11.03;68.01
65557;BME280;52200;53.490;14.376;2023-05-03T07:29:17;102646.50;;;11.18;67.54
65557;BME280;52200;53.490;14.376;2023-05-03T07:31:43;102655.00;;;11.29;67.73
65557;BME280;52200;53.490;14.376;2023-05-03T07:34:11;102648.22;;;11.25;67.55
65557;BME280;52200;53.490;14.376;2023-05-03T07:36:38;102654.19;;;11.58;66.78
65557;BME280;52200;53.490;14.376;2023-05-03T07:39:03;102653.34;;;11.61;66.02
65557;BME280;52200;53.490;14.376;2023-05-03T07:41:29;102652.47;;;11.77;65.89
65557;BME280;52200;53.490;14.376;2023-05-03T07:43:55;102653.34;;;11.67;64.71
65557;BME280;52200;53.490;14.376;2023-05-03T07:46:21;102653.34;;;11.61;64.81
65557;BME280;52200;53.490;14.376;2023-05-03T07:48:47;102663.50;;;11.92;65.21
65557;BME280;52200;53.490;14.376;2023-05-03T07:51:12;102662.66;;;11.48;65.03
65557;BME280;52200;53.490;14.376;2023-05-03T07:53:38;102661.81;;;11.40;64.57
65557;BME280;52200;53.490;14.376;2023-05-03T07:56:05;102658.41;;;11.52;65.47
65557;BME280;52200;53.490;14.376;2023-05-03T07:58:31;102652.47;;;11.65;64.64
65557;BME280;52200;53.490;14.376;2023-05-03T08:00:56;102660.09;;;11.79;66.27
65557;BME280;52200;53.490;14.376;2023-05-03T08:03:22;102659.25;;;11.92;63.56
65557;BME280;52200;53.490;14.376;2023-05-03T08:05:48;102663.38;;;12.65;63.74
65557;BME280;52200;53.490;14.376;2023-05-03T08:08:14;102663.44;;;12.46;61.36
65557;BME280;52200;53.490;14.376;2023-05-03T08:10:39;102673.63;;;12.49;61.27
65557;BME280;52200;53.490;14.376;2023-05-03T08:13:05;102671.91;;;12.47;61.78
65557;BME280;52200;53.490;14.376;2023-05-03T08:15:31;102665.53;;;13.36;60.64
65557;BME280;52200;53.490;14.376;2023-05-03T08:17:58;102659.19;;;13.86;59.12
65557;BME280;52200;53.490;14.376;2023-05-03T08:20:24;102662.59;;;13.85;56.95
65557;BME280;52200;53.490;14.376;2023-05-03T08:22:51;102657.50;;;13.85;57.78
65557;BME280;52200;53.490;14.376;2023-05-03T08:25:20;102673.19;;;13.34;57.26
65557;BME280;52200;53.490;14.376;2023-05-03T08:27:46;102665.53;;;13.39;59.03
65557;BME280;52200;53.490;14.376;2023-05-03T08:30:12;102665.13;;;13.90;57.02
65557;BME280;52200;53.490;14.376;2023-05-03T08:32:37;102652.13;;;14.10;56.04
65557;BME280;52200;53.490;14.376;2023-05-03T08:35:03;102653.09;;;14.00;55.00
65557;BME280;52200;53.490;14.376;2023-05-03T08:37:37;102642.34;;;14.49;53.92
65557;BME280;52200;53.490;14.376;2023-05-03T08:40:03;102653.38;;;13.70;54.52
65557;BME280;52200;53.490;14.376;2023-05-03T08:42:31;102656.16;;;13.43;56.47
65557;BME280;52200;53.490;14.376;2023-05-03T08:44:58;102665.53;;;13.39;56.53
65557;BME280;52200;53.490;14.376;2023-05-03T08:47:23;102653.00;;;13.02;57.31
65557;BME280;52200;53.490;14.376;2023-05-03T08:49:52;102652.75;;;13.36;57.36
65557;BME280;52200;53.490;14.376;2023-05-03T08:52:17;102649.03;;;13.80;56.55
65557;BME280;52200;53.490;14.376;2023-05-03T08:54:45;102641.06;;;14.10;53.38
65557;BME280;52200;53.490;14.376;2023-05-03T08:57:13;102650.72;;;13.81;53.02
65557;BME280;52200;53.490;14.376;2023-05-03T08:59:49;102651.53;;;13.85;53.50
65557;BME280;52200;53.490;14.376;2023-05-03T09:02:16;102663.19;;;12.99;55.33
65557;BME280;52200;53.490;14.376;2023-05-03T09:04:42;102653.28;;;12.24;57.18
65557;BME280;52200;53.490;14.376;2023-05-03T09:07:09;102646.50;;;12.27;57.18
65557;BME280;52200;53.490;14.376;2023-05-03T09:09:35;102650.75;;;12.18;57.64
65557;BME280;52200;53.490;14.376;2023-05-03T09:12:02;102653.25;;;12.40;58.22
65557;BME280;52200;53.490;14.376;2023-05-03T09:14:27;102651.22;;;13.10;58.66
65557;BME280;52200;53.490;14.376;2023-05-03T09:16:53;102657.00;;;13.42;54.59
65557;BME280;52200;53.490;14.376;2023-05-03T09:19:18;102663.03;;;13.28;55.61
65557;BME280;52200;53.490;14.376;2023-05-03T09:21:45;102657.34;;;12.81;55.51
65557;BME280;52200;53.490;14.376;2023-05-03T09:24:20;102657.91;;;13.33;54.44
65557;BME280;52200;53.490;14.376;2023-05-03T09:26:48;102661.97;;;13.60;55.13
65557;BME280;52200;53.490;14.376;2023-05-03T09:29:33;102654.59;;;14.21;53.09
65557;BME280;52200;53.490;14.376;2023-05-03T09:32:01;102657.75;;;14.43;52.46
65557;BME280;52200;53.490;14.376;2023-05-03T09:34:29;102656.75;;;14.57;51.22
65557;BME280;52200;53.490;14.376;2023-05-03T09:36:55;102664.50;;;15.14;50.86
65557;BME280;52200;53.490;14.376;2023-05-03T09:39:21;102655.69;;;15.34;51.73
65557;BME280;52200;53.490;14.376;2023-05-03T09:41:46;102651.84;;;15.63;51.38
65557;BME280;52200;53.490;14.376;2023-05-03T09:44:12;102652.66;;;15.63;47.08
65557;BME280;52200;53.490;14.376;2023-05-03T09:46:37;102653.63;;;15.56;46.13
65557;BME280;52200;53.490;14.376;2023-05-03T09:49:03;102660.78;;;15.89;45.88
65557;BME280;52200;53.490;14.376;2023-05-03T09:51:30;102658.81;;;16.03;44.28
65557;BME280;52200;53.490;14.376;2023-05-03T09:53:59;102670.53;;;15.12;45.91
65557;BME280;52200;53.490;14.376;2023-05-03T09:56:25;102675.41;;;14.65;49.00
65557;BME280;52200;53.490;14.376;2023-05-03T09:58:52;102666.91;;;13.77;51.64
65557;BME280;52200;53.490;14.376;2023-05-03T10:01:18;102664.97;;;14.04;51.91
65557;BME280;52200;53.490;14.376;2023-05-03T10:03:48;102667.69;;;13.89;51.69
65557;BME280;52200;53.490;14.376;2023-05-03T10:11:42;102659.41;;;15.14;50.86
65557;BME280;52200;53.490;14.376;2023-05-03T10:14:12;102644.19;;;15.60;47.36
65557;BME280;52200;53.490;14.376;2023-05-03T10:16:40;102660.63;;;15.98;48.81
65557;BME280;52200;53.490;14.376;2023-05-03T10:24:25;102655.72;;;14.73;48.61
65557;BME280;52200;53.490;14.376;2023-05-03T10:26:50;102660.72;;;14.82;49.27
65557;BME280;52200;53.490;14.376;2023-05-03T10:32:04;102660.38;;;14.37;49.16
65557;BME280;52200;53.490;14.376;2023-05-03T10:34:34;102660.53;;;14.25;48.24
65557;BME280;52200;53.490;14.376;2023-05-03T10:37:01;102651.66;;;14.54;48.51
65557;BME280;52200;53.490;14.376;2023-05-03T10:39:29;102652.75;;;15.57;48.26
65557;BME280;52200;53.490;14.376;2023-05-03T10:42:01;102659.00;;;15.94;46.81
65557;BME280;52200;53.490;14.376;2023-05-03T10:44:34;102650.78;;;16.22;47.99
65557;BME280;52200;53.490;14.376;2023-05-03T10:47:11;102647.50;;;16.57;46.87
65557;BME280;52200;53.490;14.376;2023-05-03T10:49:37;102657.00;;;16.95;46.54
65557;BME280;52200;53.490;14.376;2023-05-03T10:52:02;102650.09;;;16.98;45.45
65557;BME280;52200;53.490;14.376;2023-05-03T10:54:28;102652.13;;;16.41;46.52
65557;BME280;52200;53.490;14.376;2023-05-03T10:56:54;102646.53;;;16.63;46.50
65557;BME280;52200;53.490;14.376;2023-05-03T10:59:21;102649.22;;;16.16;46.38
65557;BME280;52200;53.490;14.376;2023-05-03T11:01:49;102655.84;;;15.78;46.36
65557;BME280;52200;53.490;14.376;2023-05-03T11:04:24;102648.56;;;15.52;47.22
65557;BME280;52200;53.490;14.376;2023-05-03T11:06:50;102650.84;;;15.15;48.29
65557;BME280;52200;53.490;14.376;2023-05-03T11:09:29;102649.03;;;15.24;49.57
65557;BME280;52200;53.490;14.376;2023-05-03T11:11:55;102646.84;;;15.54;48.71
65557;BME280;52200;53.490;14.376;2023-05-03T11:14:21;102658.38;;;14.61;49.58
65557;BME280;52200;53.490;14.376;2023-05-03T11:16:47;102658.38;;;14.61;50.76
65557;BME280;52200;53.490;14.376;2023-05-03T11:19:14;102655.34;;;14.28;50.94
65557;BME280;52200;53.490;14.376;2023-05-03T11:21:41;102652.69;;;14.39;51.67
65557;BME280;52200;53.490;14.376;2023-05-03T11:24:06;102645.19;;;14.22;51.55
65557;BME280;52200;53.490;14.376;2023-05-03T11:26:38;102651.94;;;14.29;50.19
65557;BME280;52200;53.490;14.376;2023-05-03T11:29:04;102646.66;;;14.44;50.75
65557;BME280;52200;53.490;14.376;2023-05-03T11:31:31;102655.00;;;14.59;50.75
65557;BME280;52200;53.490;14.376;2023-05-03T11:33:56;102636.56;;;14.32;50.26
65557;BME280;52200;53.490;14.376;2023-05-03T11:36:22;102646.72;;;14.38;51.15
65557;BME280;52200;53.490;14.376;2023-05-03T11:38:47;102636.59;;;14.29;50.94
65557;BME280;52200;53.490;14.376;2023-05-03T11:41:16;102650.34;;;14.18;50.88
65557;BME280;52200;53.490;14.376;2023-05-03T11:43:46;102648.53;;;14.27;50.78
65557;BME280;52200;53.490;14.376;2023-05-03T11:46:16;102650.63;;;14.72;50.19
65557;BME280;52200;53.490;14.376;2023-05-03T11:48:43;102644.19;;;14.38;51.67
65557;BME280;52200;53.490;14.376;2023-05-03T11:51:09;102643.97;;;14.54;51.44
65557;BME280;52200;53.490;14.376;2023-05-03T11:53:39;102645.38;;;14.79;51.47
65557;BME280;52200;53.490;14.376;2023-05-03T11:56:11;102640.72;;;14.39;51.35
65557;BME280;52200;53.490;14.376;2023-05-03T11:58:55;102641.00;;;14.14;50.90
65557;BME280;52200;53.490;14.376;2023-05-03T12:01:24;102649.06;;;13.76;50.70
65557;BME280;52200;53.490;14.376;2023-05-03T12:04:00;102642.81;;;14.06;51.93
65557;BME280;52200;53.490;14.376;2023-05-03T12:06:30;102632.06;;;14.54;50.54
65557;BME280;52200;53.490;14.376;2023-05-03T12:08:57;102634.38;;;15.34;49.48
65557;BME280;52200;53.490;14.376;2023-05-03T12:11:23;102627.00;;;16.14;49.35
65557;BME280;52200;53.490;14.376;2023-05-03T12:13:59;102625.28;;;16.56;48.00
65557;BME280;52200;53.490;14.376;2023-05-03T12:16:26;102627.91;;;16.55;46.70
65557;BME280;52200;53.490;14.376;2023-05-03T12:18:54;102634.06;;;16.02;45.94
65557;BME280;52200;53.490;14.376;2023-05-03T12:21:43;102634.47;;;15.77;45.95
65557;BME280;52200;53.490;14.376;2023-05-03T12:24:09;102621.13;;;15.60;46.13
65557;BME280;52200;53.490;14.376;2023-05-03T12:26:35;102626.97;;;15.68;47.64
65557;BME280;52200;53.490;14.376;2023-05-03T12:29:00;102627.13;;;15.04;46.31
65557;BME280;52200;53.490;14.376;2023-05-03T12:31:26;102628.50;;;14.64;48.08
65557;BME280;52200;53.490;14.376;2023-05-03T12:33:52;102624.22;;;14.68;48.45
65557;BME280;52200;53.490;14.376;2023-05-03T12:36:18;102623.47;;;15.19;47.99
65557;BME280;52200;53.490;14.376;2023-05-03T12:38:43;102625.63;;;15.45;47.40
65557;BME280;52200;53.490;14.376;2023-05-03T12:41:09;102626.72;;;14.73;48.17
65557;BME280;52200;53.490;14.376;2023-05-03T12:43:36;102627.69;;;14.61;48.17
65557;BME280;52200;53.490;14.376;2023-05-03T12:46:01;102629.00;;;14.93;48.56
65557;BME280;52200;53.490;14.376;2023-05-03T12:48:28;102625.69;;;14.85;47.85
65557;BME280;52200;53.490;14.376;2023-05-03T12:50:54;102618.97;;;14.77;48.83
65557;BME280;52200;53.490;14.376;2023-05-03T12:53:20;102613.41;;;14.44;48.76
65557;BME280;52200;53.490;14.376;2023-05-03T12:55:46;102615.44;;;14.86;49.05
65557;BME280;52200;53.490;14.376;2023-05-03T12:58:12;102609.69;;;15.79;47.82
65557;BME280;52200;53.490;14.376;2023-05-03T13:00:38;102607.88;;;16.71;45.77
65557;BME280;52200;53.490;14.376;2023-05-03T13:03:04;102601.22;;;17.01;44.15